Time;durP1;ratioP1;P1;durP2;ratioP2;P2;SDS_P1;SDS_P2;PMS_P1;PMS_P2;Temp;Humidity;BMP_temperature;BMP_pressure;BME280_temperature;BME280_humidity;BME280_pressure;Samples;Min_cycle;Max_cycle;Signal;HPM_P1;HPM_P2
2021/09/18 04:31:37;;;;;;;9.03;7.63;;;8.70;99.90;;;;;;5686239;23;20533;-81
2021/09/18 04:34:03;;;;;;;10.53;8.63;;;8.70;99.90;;;;;;5025751;28;20433;-81
2021/09/18 04:36:28;;;;;;;10.93;8.60;;;8.70;99.90;;;;;;5020280;28;20190;-81
2021/09/18 04:38:54;;;;;;;9.40;8.23;;;8.60;99.90;;;;;;5029512;28;20214;-80
2021/09/18 04:41:20;;;;;;;11.80;9.50;;;8.60;99.90;;;;;;5015798;28;20317;-80
2021/09/18 04:43:45;;;;;;;10.30;8.70;;;8.60;99.90;;;;;;5033394;28;20254;-80
2021/09/18 04:46:11;;;;;;;8.90;8.00;;;8.70;99.90;;;;;;5033219;28;20446;-80
2021/09/18 04:48:36;;;;;;;9.80;8.73;;;8.70;99.90;;;;;;5033558;28;20535;-79
2021/09/18 04:51:02;;;;;;;13.80;8.97;;;8.60;99.90;;;;;;5033851;28;20207;-80
2021/09/18 04:53:28;;;;;;;11.13;8.50;;;8.60;99.90;;;;;;5033875;28;20546;-80
2021/09/18 04:55:53;;;;;;;9.30;8.40;;;8.60;99.90;;;;;;5032976;28;20175;-80
2021/09/18 04:58:19;;;;;;;9.60;8.40;;;8.60;99.90;;;;;;5031549;28;20180;-77
2021/09/18 05:00:45;;;;;;;12.73;9.23;;;8.60;99.90;;;;;;5031332;28;20200;-77
2021/09/18 05:03:11;;;;;;;15.00;7.70;;;8.60;99.90;;;;;;5030851;28;20188;-77
2021/09/18 05:05:36;;;;;;;8.83;8.03;;;8.60;99.90;;;;;;5031348;28;20172;-77
2021/09/18 05:08:03;;;;;;;10.20;9.13;;;8.60;99.90;;;;;;5031186;28;20453;-77
2021/09/18 05:10:28;;;;;;;10.33;9.33;;;8.60;99.90;;;;;;5031693;28;20205;-77
2021/09/18 05:12:54;;;;;;;9.40;8.40;;;8.60;99.90;;;;;;5031244;28;20410;-77
2021/09/18 05:15:19;;;;;;;12.77;8.70;;;8.60;99.90;;;;;;5030833;28;20199;-77
2021/09/18 05:17:45;;;;;;;9.60;8.70;;;8.60;99.90;;;;;;5031308;28;20177;-75
2021/09/18 05:20:11;;;;;;;8.93;8.00;;;8.60;99.90;;;;;;5031138;28;20192;-77
2021/09/18 05:22:37;;;;;;;15.57;9.13;;;8.60;99.90;;;;;;5031275;28;20557;-77
2021/09/18 05:25:04;;;;;;;9.30;8.20;;;8.70;99.90;;;;;;5030929;28;20413;-77
2021/09/18 05:27:29;;;;;;;11.80;8.57;;;8.70;99.90;;;;;;5031327;28;20176;-77
2021/09/18 05:29:55;;;;;;;9.70;8.70;;;8.70;99.90;;;;;;5031174;28;20802;-77
2021/09/18 05:32:20;;;;;;;9.73;8.73;;;8.70;99.90;;;;;;5033058;28;20708;-77
2021/09/18 05:34:46;;;;;;;10.97;8.70;;;8.80;99.90;;;;;;5035421;28;20253;-77
2021/09/18 05:37:12;;;;;;;13.10;9.97;;;8.80;99.90;;;;;;5034588;28;20190;-77
2021/09/18 05:39:37;;;;;;;14.10;9.50;;;8.90;99.90;;;;;;5034477;28;20543;-77
2021/09/18 05:42:03;;;;;;;11.03;8.43;;;9.00;99.90;;;;;;5034769;28;20203;-77
2021/09/18 05:44:29;;;;;;;13.20;10.00;;;9.10;99.90;;;;;;5034841;28;20238;-78
2021/09/18 05:46:54;;;;;;;9.90;8.90;;;9.20;99.90;;;;;;5033898;28;20199;-77
2021/09/18 05:49:20;;;;;;;11.67;9.80;;;9.30;99.90;;;;;;5016098;28;20287;-78
2021/09/18 05:51:45;;;;;;;9.83;8.63;;;9.40;99.90;;;;;;5033822;28;20231;-77
2021/09/18 05:54:11;;;;;;;10.60;9.50;;;9.50;99.90;;;;;;5016107;28;20178;-77
2021/09/18 05:56:37;;;;;;;11.67;9.50;;;9.80;99.90;;;;;;5033881;28;20200;-77
2021/09/18 05:59:03;;;;;;;10.93;8.77;;;10.60;99.90;;;;;;5033733;28;20169;-78
2021/09/18 06:01:29;;;;;;;8.00;7.20;;;12.10;99.90;;;;;;5033983;28;20202;-78
2021/09/18 06:03:55;;;;;;;7.07;6.47;;;13.60;99.90;;;;;;5033934;28;20405;-78
2021/09/18 06:06:20;;;;;;;8.27;6.97;;;15.20;99.90;;;;;;5034285;28;20413;-78
2021/09/18 06:08:46;;;;;;;6.50;6.00;;;16.50;99.90;;;;;;5016098;28;20197;-78
2021/09/18 06:11:11;;;;;;;7.13;6.43;;;17.20;99.90;;;;;;5033519;28;20941;-79
2021/09/18 06:13:37;;;;;;;7.40;5.83;;;18.00;99.90;;;;;;5033636;28;20179;-78
2021/09/18 06:16:03;;;;;;;7.60;5.13;;;18.70;99.90;;;;;;5033474;28;20181;-77
2021/09/18 06:18:28;;;;;;;6.70;6.10;;;18.90;99.90;;;;;;5033757;28;20167;-78
2021/09/18 06:20:54;;;;;;;6.37;5.70;;;19.30;99.90;;;;;;5033786;28;20216;-79
2021/09/18 06:23:20;;;;;;;8.90;5.23;;;19.60;99.90;;;;;;5033521;28;20276;-79
2021/09/18 06:25:45;;;;;;;7.00;6.50;;;20.00;99.90;;;;;;5033633;28;20182;-79
2021/09/18 06:28:11;;;;;;;7.63;6.17;;;20.50;99.90;;;;;;5033377;28;20182;-78
2021/09/18 06:30:37;;;;;;;6.03;5.57;;;20.50;99.90;;;;;;5033576;28;20571;-78
2021/09/18 06:33:02;;;;;;;6.30;5.80;;;21.20;99.90;;;;;;5033427;28;20190;-78
2021/09/18 06:35:28;;;;;;;6.23;5.57;;;21.60;99.90;;;;;;5033831;28;20178;-78
2021/09/18 06:37:53;;;;;;;6.80;5.70;;;22.00;99.90;;;;;;5033677;28;20639;-78
2021/09/18 06:40:20;;;;;;;9.33;6.07;;;22.40;99.90;;;;;;5033655;28;20184;-78
2021/09/18 06:42:46;;;;;;;7.27;5.80;;;22.40;99.90;;;;;;5033512;28;20194;-78
2021/09/18 06:45:13;;;;;;;7.63;6.90;;;22.80;99.90;;;;;;5033398;28;20424;-79
2021/09/18 06:47:38;;;;;;;8.00;7.20;;;22.50;99.90;;;;;;5033659;28;20436;-78
2021/09/18 06:50:05;;;;;;;8.67;7.87;;;22.10;99.90;;;;;;5032970;28;20452;-77
2021/09/18 06:52:31;;;;;;;7.43;6.70;;;22.60;99.90;;;;;;5032987;28;20932;-77
2021/09/18 06:54:57;;;;;;;8.17;7.37;;;22.30;99.90;;;;;;5029842;28;20417;-78
2021/09/18 06:57:22;;;;;;;7.83;7.00;;;22.40;99.90;;;;;;5029823;28;20189;-78
2021/09/18 06:59:48;;;;;;;8.93;7.33;;;22.50;99.90;;;;;;5032824;28;20182;-77
2021/09/18 07:02:14;;;;;;;7.27;6.67;;;22.00;99.90;;;;;;5032370;28;20241;-77
2021/09/18 07:04:39;;;;;;;9.23;8.10;;;21.60;99.90;;;;;;5033110;28;20697;-77
2021/09/18 07:07:05;;;;;;;10.60;8.17;;;21.10;99.90;;;;;;5030045;28;20185;-78
2021/09/18 07:09:31;;;;;;;9.10;7.93;;;20.90;99.90;;;;;;5004435;28;20198;-78
2021/09/18 07:11:57;;;;;;;12.17;8.40;;;20.30;99.90;;;;;;5013052;28;20721;-79
2021/09/18 07:14:22;;;;;;;11.20;8.40;;;20.10;99.90;;;;;;5012781;28;20402;-78
2021/09/18 07:16:48;;;;;;;8.97;8.03;;;20.10;99.90;;;;;;5013125;28;20229;-78
2021/09/18 07:19:14;;;;;;;10.33;8.40;;;20.00;99.90;;;;;;5012723;28;20179;-77
2021/09/18 07:21:40;;;;;;;11.30;9.43;;;20.20;99.90;;;;;;4995472;28;20205;-77
2021/09/18 07:24:06;;;;;;;12.33;9.63;;;20.00;99.90;;;;;;5013192;28;20405;-77
2021/09/18 07:26:36;;;;;;;9.60;8.60;;;19.70;99.90;;;;;;5013471;28;20455;-77
2021/09/18 07:29:02;;;;;;;11.57;9.10;;;19.70;99.90;;;;;;5013168;28;20167;-77
2021/09/18 07:31:28;;;;;;;10.47;9.07;;;20.00;99.90;;;;;;5012344;28;20453;-78
2021/09/18 07:33:53;;;;;;;9.77;8.67;;;19.80;99.90;;;;;;5012740;28;20417;-78
2021/09/18 07:36:19;;;;;;;9.90;9.00;;;20.00;99.90;;;;;;5012341;28;20671;-77
2021/09/18 07:38:45;;;;;;;14.50;8.87;;;20.10;99.90;;;;;;5012569;28;20234;-77
2021/09/18 07:41:11;;;;;;;9.57;8.57;;;20.20;99.90;;;;;;5012212;28;20460;-78
2021/09/18 07:43:36;;;;;;;10.33;8.77;;;20.20;99.90;;;;;;5012769;28;20652;-78
2021/09/18 07:46:02;;;;;;;9.90;7.97;;;20.00;99.90;;;;;;5012839;28;20183;-77
2021/09/18 07:48:30;;;;;;;11.37;8.67;;;20.10;99.90;;;;;;5012578;28;20186;-78
2021/09/18 07:50:57;;;;;;;11.40;9.10;;;20.30;99.90;;;;;;5012197;28;20218;-77
2021/09/18 07:53:23;;;;;;;12.70;8.87;;;20.60;99.90;;;;;;5012577;28;20421;-78
2021/09/18 07:55:48;;;;;;;8.90;8.10;;;20.80;99.90;;;;;;5011843;28;20418;-76
2021/09/18 07:58:18;;;;;;;9.20;8.30;;;20.90;99.90;;;;;;5012387;28;20167;-78
2021/09/18 08:00:45;;;;;;;11.63;8.40;;;21.30;99.90;;;;;;5012341;28;20194;-77
2021/09/18 08:03:10;;;;;;;12.60;7.93;;;21.50;99.90;;;;;;5012194;28;20468;-76
2021/09/18 08:05:36;;;;;;;11.60;7.70;;;21.30;99.90;;;;;;4994856;28;20426;-77
2021/09/18 08:08:02;;;;;;;9.57;8.57;;;21.40;99.90;;;;;;5012495;28;20207;-78
2021/09/18 08:10:28;;;;;;;8.87;7.90;;;21.50;99.90;;;;;;5018870;28;20209;-76
2021/09/18 08:12:54;;;;;;;8.13;7.27;;;21.40;99.90;;;;;;5032109;28;20872;-77
2021/09/18 08:15:20;;;;;;;8.77;7.87;;;21.40;99.90;;;;;;5031866;28;20455;-77
2021/09/18 08:17:46;;;;;;;9.80;8.80;;;21.40;99.90;;;;;;5031684;28;20177;-78
2021/09/18 08:20:14;;;;;;;10.30;8.57;;;21.40;99.90;;;;;;5031308;28;20189;-76
2021/09/18 08:22:40;;;;;;;11.10;8.50;;;21.60;99.90;;;;;;5014104;28;20452;-77
2021/09/18 08:25:07;;;;;;;8.60;7.87;;;21.60;99.90;;;;;;5031434;28;20413;-77
2021/09/18 08:27:33;;;;;;;11.17;8.13;;;21.90;99.90;;;;;;5013964;28;20778;-77
2021/09/18 08:29:59;;;;;;;8.93;7.90;;;21.80;99.90;;;;;;5031271;28;20547;-78
2021/09/18 08:32:24;;;;;;;14.40;8.00;;;21.90;99.90;;;;;;5031652;28;20539;-77
2021/09/18 08:34:50;;;;;;;14.93;8.70;;;22.20;99.90;;;;;;5031784;28;20635;-78
2021/09/18 08:37:16;;;;;;;10.27;7.50;;;22.40;99.90;;;;;;5032019;28;20193;-78
2021/09/18 08:39:42;;;;;;;13.17;8.07;;;22.30;99.90;;;;;;5031951;28;20177;-78
2021/09/18 08:42:09;;;;;;;11.00;7.70;;;22.70;99.90;;;;;;5032872;28;20822;-78
2021/09/18 08:44:36;;;;;;;9.17;7.20;;;22.80;99.90;;;;;;5032933;28;20602;-78
2021/09/18 08:47:02;;;;;;;9.13;7.37;;;23.10;99.90;;;;;;5014607;28;20835;-79
2021/09/18 08:49:29;;;;;;;10.23;7.50;;;23.40;99.90;;;;;;5031777;28;20866;-77
2021/09/18 08:51:55;;;;;;;8.60;7.70;;;23.80;99.90;;;;;;5029897;28;20472;-77
2021/09/18 08:54:21;;;;;;;6.80;6.30;;;23.40;99.90;;;;;;5029840;28;20452;-77
2021/09/18 08:56:47;;;;;;;7.23;5.93;;;23.50;99.90;;;;;;5029490;28;20412;-78
2021/09/18 08:59:13;;;;;;;8.50;6.20;;;23.60;99.90;;;;;;5029931;28;20421;-78
2021/09/18 09:01:38;;;;;;;8.27;6.63;;;23.90;99.90;;;;;;5030008;28;20209;-77
2021/09/18 09:04:10;;;;;;;7.70;6.50;;;23.90;99.90;;;;;;5014094;28;20206;-79
2021/09/18 09:06:52;;;;;;;7.13;6.47;;;24.10;99.90;;;;;;5032370;28;20181;-78
2021/09/18 09:09:17;;;;;;;6.87;5.57;;;24.10;99.90;;;;;;5034369;28;20432;-77
2021/09/18 09:11:52;;;;;;;7.43;6.73;;;24.10;99.90;;;;;;5034765;28;20449;-78
2021/09/18 09:14:17;;;;;;;6.17;5.70;;;24.50;99.90;;;;;;5034574;28;20209;-77
2021/09/18 09:16:55;;;;;;;6.20;5.70;;;24.40;99.90;;;;;;5036280;28;20811;-79
2021/09/18 09:19:21;;;;;;;5.70;5.20;;;24.60;99.90;;;;;;5034838;28;20182;-78
2021/09/18 09:21:54;;;;;;;7.10;5.53;;;24.80;99.90;;;;;;5034633;28;20439;-79
2021/09/18 09:24:24;;;;;;;5.70;5.20;;;25.20;99.90;;;;;;5034820;28;20236;-79
2021/09/18 09:27:05;;;;;;;5.97;4.60;;;25.40;99.90;;;;;;5034512;28;20495;-78
2021/09/18 09:29:53;;;;;;;5.53;5.00;;;25.30;99.90;;;;;;5034656;28;20495;-78
2021/09/18 09:32:26;;;;;;;4.70;4.40;;;24.90;99.90;;;;;;5034295;28;20483;-78
2021/09/18 09:34:56;;;;;;;5.23;4.83;;;25.00;99.90;;;;;;5016644;28;20764;-78
2021/09/18 09:37:23;;;;;;;4.50;4.10;;;24.50;99.90;;;;;;5035250;28;20421;-78
2021/09/18 09:39:53;;;;;;;4.53;4.23;;;24.80;99.90;;;;;;5034563;28;20428;-78
2021/09/18 09:42:31;;;;;;;5.00;4.60;;;25.00;99.90;;;;;;5034416;28;20477;-78
2021/09/18 09:45:12;;;;;;;6.30;4.53;;;25.30;99.90;;;;;;5034545;28;20932;-78
2021/09/18 09:47:38;;;;;;;4.57;4.13;;;25.70;99.90;;;;;;5017130;28;20420;-77
2021/09/18 09:50:04;;;;;;;8.30;3.30;;;25.80;99.90;;;;;;5034681;28;20456;-78
2021/09/18 09:52:32;;;;;;;3.10;2.90;;;25.70;99.90;;;;;;5033790;28;20194;-78
2021/09/18 09:55:07;;;;;;;3.60;3.40;;;25.30;99.90;;;;;;5034221;28;20449;-78
2021/09/18 09:57:32;;;;;;;3.77;3.47;;;25.50;99.90;;;;;;5033589;28;20412;-78
2021/09/18 10:00:05;;;;;;;3.60;3.40;;;25.70;99.90;;;;;;5033831;28;20440;-79
2021/09/18 10:02:31;;;;;;;3.67;3.10;;;25.70;99.90;;;;;;5033528;28;20205;-79
2021/09/18 10:04:56;;;;;;;3.13;2.83;;;25.80;99.90;;;;;;5034153;28;20447;-78
2021/09/18 10:07:22;;;;;;;1.83;1.73;;;25.70;99.90;;;;;;5034172;28;20198;-79
2021/09/18 10:09:48;;;;;;;3.50;3.30;;;25.40;99.90;;;;;;5016292;28;20198;-79
2021/09/18 10:12:15;;;;;;;3.03;2.83;;;25.10;99.90;;;;;;5033717;28;20429;-79
2021/09/18 10:14:45;;;;;;;2.67;2.47;;;25.20;99.90;;;;;;5033874;28;20174;-78
2021/09/18 10:17:11;;;;;;;2.00;1.90;;;25.30;99.90;;;;;;5033289;28;20484;-76
2021/09/18 10:24:51;;;;;;;1.63;1.53;;;25.80;99.90;;;;;;5034388;28;20569;-79
2021/09/18 10:27:25;;;;;;;1.87;1.77;;;25.90;99.90;;;;;;5033935;28;20424;-80
2021/09/18 10:29:51;;;;;;;8.10;1.60;;;25.90;99.90;;;;;;5034177;28;20520;-78
2021/09/18 10:32:19;;;;;;;0.87;0.87;;;26.00;99.90;;;;;;5033754;28;20839;-79
2021/09/18 10:34:44;;;;;;;1.00;1.00;;;26.20;99.90;;;;;;5034794;28;20503;-78
2021/09/18 10:37:36;;;;;;;1.00;0.90;;;26.30;99.90;;;;;;5034299;28;20849;-79
2021/09/18 10:40:08;;;;;;;3.23;0.80;;;26.70;99.90;;;;;;5034535;28;20615;-79
2021/09/18 10:42:37;;;;;;;1.83;1.60;;;26.80;99.90;;;;;;5034858;28;20428;-79
2021/09/18 10:45:04;;;;;;;1.80;1.70;;;26.70;99.90;;;;;;5034949;28;20404;-79
2021/09/18 10:47:41;;;;;;;1.57;1.47;;;26.80;99.90;;;;;;5034600;28;20412;-79
2021/09/18 10:50:21;;;;;;;1.90;1.80;;;26.80;99.90;;;;;;5034183;28;20965;-79
2021/09/18 10:53:00;;;;;;;1.67;1.57;;;26.40;99.90;;;;;;5034447;28;20482;-79
2021/09/18 10:55:26;;;;;;;2.00;1.90;;;26.20;99.90;;;;;;5035344;28;20423;-79
2021/09/18 10:57:51;;;;;;;2.50;2.30;;;26.00;99.90;;;;;;5034163;28;20431;-79
2021/09/18 11:00:17;;;;;;;3.37;3.10;;;25.40;99.90;;;;;;5016270;28;20421;-79
2021/09/18 11:02:57;;;;;;;4.60;2.27;;;25.30;99.90;;;;;;5033927;28;20202;-79
2021/09/18 11:05:25;;;;;;;2.77;2.57;;;25.30;99.90;;;;;;5033571;28;20268;-78
2021/09/18 11:07:59;;;;;;;3.80;2.10;;;25.70;99.90;;;;;;5034126;28;20425;-78
2021/09/18 11:10:24;;;;;;;2.30;2.20;;;26.00;99.90;;;;;;5034362;28;20981;-79
2021/09/18 11:13:08;;;;;;;2.50;2.27;;;26.30;99.90;;;;;;5033644;28;20433;-79
2021/09/18 11:16:04;;;;;;;3.53;3.03;;;26.50;99.90;;;;;;5016499;28;20170;-79
2021/09/18 11:18:39;;;;;;;5.47;4.20;;;26.50;99.90;;;;;;5033270;28;20413;-79
2021/09/18 11:21:17;;;;;;;3.23;3.03;;;26.10;99.90;;;;;;5033570;28;20515;-79
2021/09/18 11:23:52;;;;;;;2.90;2.70;;;26.00;99.90;;;;;;5033780;28;20412;-79
2021/09/18 11:26:40;;;;;;;3.00;2.80;;;26.10;99.90;;;;;;5033942;28;20438;-79
2021/09/18 11:29:11;;;;;;;2.70;2.60;;;26.10;99.90;;;;;;5032407;28;20416;-79
2021/09/18 11:31:38;;;;;;;2.23;2.00;;;25.70;99.90;;;;;;5033500;28;20531;-78
2021/09/18 11:34:04;;;;;;;3.40;3.10;;;25.40;99.90;;;;;;5033291;28;20764;-78
2021/09/18 11:36:41;;;;;;;3.23;2.90;;;25.40;99.90;;;;;;5032964;28;20412;-78
2021/09/18 11:39:06;;;;;;;2.70;2.50;;;25.20;99.90;;;;;;5033175;28;20906;-79
2021/09/18 11:41:33;;;;;;;3.63;2.90;;;25.30;99.90;;;;;;5033512;28;20432;-79
2021/09/18 11:44:10;;;;;;;1.93;1.80;;;25.30;99.90;;;;;;5033046;28;20177;-78
2021/09/18 11:46:36;;;;;;;2.97;2.77;;;25.20;99.90;;;;;;5032816;28;20417;-79
2021/09/18 11:49:03;;;;;;;2.70;2.50;;;25.10;99.90;;;;;;5032825;28;20417;-79
2021/09/18 11:51:29;;;;;;;2.77;2.57;;;25.20;99.90;;;;;;5033441;28;20877;-79
2021/09/18 11:54:03;;;;;;;2.50;2.40;;;25.10;99.90;;;;;;5032889;28;20398;-78
2021/09/18 11:56:28;;;;;;;3.03;2.83;;;25.10;99.90;;;;;;5032888;28;20184;-78
2021/09/18 11:58:54;;;;;;;2.83;2.63;;;24.90;99.90;;;;;;5032770;28;20405;-79
2021/09/18 12:01:20;;;;;;;2.77;2.57;;;24.50;99.90;;;;;;5033260;28;20197;-78
2021/09/18 12:03:46;;;;;;;4.37;2.50;;;24.50;99.90;;;;;;5033411;28;20181;-79
2021/09/18 12:06:17;;;;;;;2.90;2.70;;;24.60;99.90;;;;;;5033026;28;20193;-79
2021/09/18 12:08:45;;;;;;;4.13;2.73;;;24.60;99.90;;;;;;5032988;28;20418;-79
2021/09/18 12:11:11;;;;;;;2.70;2.50;;;24.50;99.90;;;;;;5032682;28;21024;-79
2021/09/18 12:13:40;;;;;;;3.70;3.50;;;24.50;99.90;;;;;;5032990;28;20420;-79
2021/09/18 12:16:07;;;;;;;4.10;3.10;;;24.30;99.90;;;;;;5032635;28;20409;-79
2021/09/18 12:18:40;;;;;;;3.50;3.27;;;24.20;99.90;;;;;;5033640;28;20455;-78
2021/09/18 12:21:15;;;;;;;3.23;2.93;;;23.90;99.90;;;;;;5032459;28;20805;-78
2021/09/18 12:23:43;;;;;;;3.20;2.83;;;23.80;99.90;;;;;;5015492;28;20459;-78
2021/09/18 12:26:09;;;;;;;3.20;2.93;;;23.70;99.90;;;;;;5032329;28;20416;-79
2021/09/18 12:28:36;;;;;;;3.83;2.70;;;23.50;99.90;;;;;;5033002;28;20463;-78
2021/09/18 12:31:15;;;;;;;2.77;2.67;;;23.50;99.90;;;;;;5032372;28;20500;-78
2021/09/18 12:33:41;;;;;;;3.33;3.13;;;23.50;99.90;;;;;;5034544;28;20412;-79
2021/09/18 12:36:09;;;;;;;3.60;3.30;;;23.50;99.90;;;;;;5033137;28;20415;-79
2021/09/18 12:38:37;;;;;;;4.00;3.60;;;23.40;99.90;;;;;;5033796;28;20185;-79
2021/09/18 12:41:06;;;;;;;3.10;2.90;;;23.60;99.90;;;;;;5034431;28;20931;-79
2021/09/18 12:43:32;;;;;;;4.37;2.90;;;23.50;99.90;;;;;;5036688;28;20412;-79
2021/09/18 12:46:12;;;;;;;4.27;2.90;;;23.50;99.90;;;;;;5036939;28;20405;-78
2021/09/18 12:48:41;;;;;;;3.43;3.00;;;23.50;99.90;;;;;;5036882;28;20438;-79
2021/09/18 12:51:19;;;;;;;2.60;2.50;;;23.70;99.90;;;;;;5036142;28;20514;-79
2021/09/18 12:53:50;;;;;;;3.20;3.00;;;23.70;99.90;;;;;;5018847;28;20419;-79
2021/09/18 12:56:20;;;;;;;3.20;2.90;;;23.60;99.90;;;;;;5037128;28;20480;-79
2021/09/18 12:58:52;;;;;;;3.27;3.07;;;23.50;99.90;;;;;;5037435;28;20405;-79
2021/09/18 13:01:19;;;;;;;2.90;2.70;;;23.40;99.90;;;;;;5037018;28;20432;-79
2021/09/18 13:03:59;;;;;;;3.17;2.97;;;23.20;99.90;;;;;;5036704;28;20416;-79
2021/09/18 13:06:24;;;;;;;4.93;4.57;;;23.20;99.90;;;;;;5036934;28;20409;-78
2021/09/18 13:08:55;;;;;;;3.43;3.20;;;23.20;99.90;;;;;;5036825;28;20482;-79
2021/09/18 13:11:25;;;;;;;3.47;3.17;;;23.30;99.90;;;;;;5036509;28;20278;-77
2021/09/18 13:13:51;;;;;;;3.20;3.00;;;23.20;99.90;;;;;;5018559;28;20503;-79
2021/09/18 13:16:18;;;;;;;3.63;3.33;;;23.20;99.90;;;;;;5035892;28;20416;-79
2021/09/18 13:19:10;;;;;;;4.40;3.13;;;23.30;99.90;;;;;;5035985;28;20408;-79
2021/09/18 13:21:36;;;;;;;3.33;3.10;;;23.00;99.90;;;;;;5036488;28;20431;-78
2021/09/18 13:24:03;;;;;;;5.63;3.00;;;22.80;99.90;;;;;;5036059;28;20411;-79
2021/09/18 13:26:29;;;;;;;3.73;3.47;;;22.90;99.90;;;;;;5036004;28;21167;-79
2021/09/18 13:28:55;;;;;;;3.70;3.50;;;23.00;99.90;;;;;;5035717;28;20416;-78
2021/09/18 13:31:20;;;;;;;2.93;2.73;;;23.00;99.90;;;;;;5035765;28;20206;-78
2021/09/18 13:33:46;;;;;;;2.93;2.73;;;23.00;99.90;;;;;;5035486;28;20941;-78
2021/09/18 13:36:11;;;;;;;5.00;3.07;;;23.00;99.90;;;;;;5017770;28;20174;-78
2021/09/18 13:38:37;;;;;;;2.90;2.70;;;22.90;99.90;;;;;;5036152;28;20174;-79
2021/09/18 13:41:02;;;;;;;5.07;3.00;;;22.90;99.90;;;;;;5035114;28;20198;-78
2021/09/18 13:43:28;;;;;;;3.50;3.30;;;22.80;99.90;;;;;;5035096;28;20545;-79
2021/09/18 13:45:54;;;;;;;2.83;2.73;;;22.80;99.90;;;;;;5036087;28;20174;-78
2021/09/18 13:48:19;;;;;;;3.20;2.83;;;22.80;99.90;;;;;;5035988;28;20709;-78
2021/09/18 13:50:45;;;;;;;2.67;2.57;;;22.70;99.90;;;;;;5035445;28;20205;-78
2021/09/18 13:53:10;;;;;;;3.70;3.50;;;22.60;99.90;;;;;;5034353;28;20593;-78
2021/09/18 13:55:36;;;;;;;3.13;2.93;;;22.60;99.90;;;;;;5035336;28;20516;-78
2021/09/18 13:58:03;;;;;;;2.97;2.77;;;22.60;99.90;;;;;;5035538;28;20177;-78
2021/09/18 14:00:29;;;;;;;2.37;2.03;;;22.60;99.90;;;;;;5035869;28;20174;-78
2021/09/18 14:02:55;;;;;;;3.00;2.80;;;22.70;99.90;;;;;;5017885;28;20555;-79
2021/09/18 14:05:20;;;;;;;3.10;2.63;;;22.70;99.90;;;;;;5017485;28;20427;-77
2021/09/18 14:07:46;;;;;;;2.73;2.53;;;22.80;99.90;;;;;;5035454;28;20182;-77
2021/09/18 14:10:12;;;;;;;2.80;2.70;;;22.80;99.90;;;;;;5035661;28;20217;-79
2021/09/18 14:12:38;;;;;;;2.40;2.30;;;22.80;99.90;;;;;;5035731;28;20357;-78
2021/09/18 14:15:04;;;;;;;5.30;3.33;;;22.80;99.90;;;;;;5035031;28;20409;-78
2021/09/18 14:17:30;;;;;;;4.07;3.10;;;22.80;99.90;;;;;;5034498;28;20257;-78
2021/09/18 14:19:55;;;;;;;3.30;3.00;;;22.70;99.90;;;;;;5034083;28;20504;-78
2021/09/18 14:22:21;;;;;;;4.17;3.87;;;22.70;99.90;;;;;;5033770;28;20288;-78
2021/09/18 14:24:46;;;;;;;3.10;2.90;;;22.60;99.90;;;;;;5033828;28;20583;-78
2021/09/18 14:27:12;;;;;;;3.37;3.17;;;22.50;99.90;;;;;;5033674;28;20202;-78
2021/09/18 14:29:37;;;;;;;3.10;2.90;;;22.30;99.90;;;;;;5034095;28;20195;-78
2021/09/18 14:32:04;;;;;;;2.87;2.60;;;22.20;99.90;;;;;;5033193;28;20232;-78
2021/09/18 14:34:29;;;;;;;3.90;3.60;;;22.10;99.90;;;;;;5018362;28;20610;-78
2021/09/18 14:36:55;;;;;;;3.10;2.90;;;22.00;99.90;;;;;;5035404;28;20451;-79
2021/09/18 14:39:20;;;;;;;3.60;3.30;;;22.00;99.90;;;;;;5035501;28;20260;-77
2021/09/18 14:41:46;;;;;;;3.30;3.10;;;22.00;99.90;;;;;;5035891;28;20277;-78
2021/09/18 14:44:11;;;;;;;3.93;3.43;;;21.80;99.90;;;;;;5035316;28;20170;-79
2021/09/18 14:46:37;;;;;;;4.17;3.87;;;21.80;99.90;;;;;;5017105;28;20178;-78
2021/09/18 14:49:04;;;;;;;3.80;3.50;;;21.70;99.90;;;;;;5035501;28;20177;-78
2021/09/18 14:51:31;;;;;;;3.40;3.20;;;21.70;99.90;;;;;;5034907;28;20471;-79
2021/09/18 14:53:57;;;;;;;3.30;3.07;;;21.70;99.90;;;;;;5034527;28;20770;-78
2021/09/18 14:56:22;;;;;;;3.73;3.23;;;21.60;99.90;;;;;;5034681;28;20409;-79
2021/09/18 14:58:48;;;;;;;3.13;2.93;;;21.60;99.90;;;;;;5034538;28;20790;-78
2021/09/18 15:01:14;;;;;;;3.23;2.93;;;21.70;99.90;;;;;;5034490;28;20194;-78
2021/09/18 15:03:40;;;;;;;3.63;3.43;;;21.70;99.90;;;;;;5034715;28;20180;-78
2021/09/18 15:06:05;;;;;;;3.80;3.30;;;21.70;99.90;;;;;;5035406;28;20495;-78
2021/09/18 15:08:31;;;;;;;3.37;3.17;;;21.70;99.90;;;;;;5017781;28;20586;-78
2021/09/18 15:10:57;;;;;;;4.10;3.77;;;21.70;99.90;;;;;;5034804;28;20209;-79
2021/09/18 15:13:23;;;;;;;3.30;3.10;;;21.60;99.90;;;;;;5034922;28;20201;-77
2021/09/18 15:15:48;;;;;;;3.27;3.07;;;21.60;99.90;;;;;;5034832;28;20420;-78
2021/09/18 15:18:14;;;;;;;3.90;3.57;;;21.60;99.90;;;;;;5035527;28;20201;-78
2021/09/18 15:20:40;;;;;;;3.17;3.03;;;21.60;99.90;;;;;;5034284;28;20575;-78
2021/09/18 15:23:05;;;;;;;3.20;3.00;;;21.50;99.90;;;;;;5016731;28;20228;-77
2021/09/18 15:25:32;;;;;;;3.80;3.60;;;21.50;99.90;;;;;;5017215;28;20189;-78
2021/09/18 15:27:57;;;;;;;8.17;6.30;;;21.40;99.90;;;;;;5034095;28;20178;-78
2021/09/18 15:30:23;;;;;;;10.90;3.07;;;21.30;99.90;;;;;;5035006;28;20558;-79
2021/09/18 15:32:49;;;;;;;3.50;3.30;;;21.30;99.90;;;;;;5034407;28;20209;-78
2021/09/18 15:35:14;;;;;;;4.87;4.43;;;21.20;99.90;;;;;;5033248;28;20181;-78
2021/09/18 15:37:40;;;;;;;4.67;3.70;;;21.20;99.90;;;;;;5033210;28;20177;-78
2021/09/18 15:40:06;;;;;;;3.57;3.37;;;21.30;99.90;;;;;;5016097;28;20174;-79
2021/09/18 15:42:32;;;;;;;3.67;3.33;;;21.20;99.90;;;;;;5034825;28;20436;-78
2021/09/18 15:44:58;;;;;;;3.87;3.67;;;21.30;99.90;;;;;;5033879;28;20918;-78
2021/09/18 15:47:23;;;;;;;3.23;2.93;;;21.30;99.90;;;;;;5034142;28;20252;-77
2021/09/18 15:49:49;;;;;;;4.30;4.00;;;21.20;99.90;;;;;;5032083;28;20193;-77
2021/09/18 15:52:14;;;;;;;3.27;3.07;;;21.20;99.90;;;;;;5031886;28;20190;-76
2021/09/18 15:54:40;;;;;;;3.60;3.30;;;21.10;99.90;;;;;;5031770;28;20181;-77
2021/09/18 15:57:05;;;;;;;3.60;3.23;;;21.10;99.90;;;;;;5031621;28;20304;-77
2021/09/18 15:59:31;;;;;;;3.27;3.07;;;21.00;99.90;;;;;;5031705;28;20638;-77
2021/09/18 16:01:57;;;;;;;4.53;3.53;;;21.00;99.90;;;;;;5031739;28;20197;-77
2021/09/18 16:04:22;;;;;;;3.47;3.27;;;20.90;99.90;;;;;;5031981;28;20543;-78
2021/09/18 16:06:48;;;;;;;3.77;3.47;;;20.90;99.90;;;;;;5031664;28;20240;-78
2021/09/18 16:09:14;;;;;;;3.60;3.30;;;20.90;99.90;;;;;;5031578;28;20224;-78
2021/09/18 16:11:40;;;;;;;3.63;3.33;;;20.80;99.90;;;;;;5031818;28;20472;-78
2021/09/18 16:14:06;;;;;;;3.80;3.47;;;20.80;99.90;;;;;;5032141;28;20548;-78
2021/09/18 16:16:32;;;;;;;3.83;3.53;;;20.80;99.90;;;;;;5031372;28;20413;-78
2021/09/18 16:18:57;;;;;;;6.50;6.00;;;20.70;99.90;;;;;;5031912;28;20220;-78
2021/09/18 16:21:23;;;;;;;7.30;6.70;;;20.70;99.90;;;;;;5031755;28;20288;-80
2021/09/18 16:23:48;;;;;;;3.80;3.50;;;20.70;99.90;;;;;;5032007;28;20651;-78
2021/09/18 16:26:14;;;;;;;3.10;3.00;;;20.70;99.90;;;;;;5032104;28;20240;-77
2021/09/18 16:28:39;;;;;;;5.90;3.80;;;20.70;99.90;;;;;;5031886;28;20235;-76
2021/09/18 16:31:05;;;;;;;5.60;4.40;;;20.60;99.90;;;;;;5029928;28;20221;-76
2021/09/18 16:33:31;;;;;;;4.60;4.30;;;20.50;99.90;;;;;;5030719;28;20193;-76
2021/09/18 16:35:56;;;;;;;4.53;4.23;;;20.40;99.90;;;;;;5031314;28;20412;-76
2021/09/18 16:38:22;;;;;;;5.60;5.10;;;20.30;99.90;;;;;;5031080;28;20174;-76
2021/09/18 16:40:48;;;;;;;7.20;6.53;;;20.20;99.90;;;;;;5031067;28;20188;-76
2021/09/18 16:43:13;;;;;;;7.30;6.67;;;20.20;99.90;;;;;;5031347;28;20186;-76
2021/09/18 16:45:39;;;;;;;7.30;6.47;;;20.10;99.90;;;;;;5031125;28;20304;-76
2021/09/18 16:48:05;;;;;;;7.90;7.10;;;20.00;99.90;;;;;;5030662;28;20182;-76
2021/09/18 16:50:30;;;;;;;6.70;5.40;;;19.90;99.90;;;;;;5030884;28;20227;-75
2021/09/18 16:52:56;;;;;;;6.03;5.40;;;19.80;99.90;;;;;;5031078;28;20595;-76
2021/09/18 16:55:22;;;;;;;5.70;5.20;;;19.70;99.90;;;;;;5031047;28;20549;-76
2021/09/18 16:57:47;;;;;;;5.20;4.80;;;19.60;99.90;;;;;;5030721;28;20593;-77
2021/09/18 17:00:13;;;;;;;5.43;5.03;;;19.60;99.90;;;;;;5030980;28;20178;-76
2021/09/18 17:02:39;;;;;;;5.80;5.30;;;19.50;99.90;;;;;;5013074;28;20205;-76
2021/09/18 17:05:05;;;;;;;5.03;4.63;;;19.30;99.90;;;;;;5031054;28;20240;-76
2021/09/18 17:07:30;;;;;;;5.93;5.43;;;19.10;99.90;;;;;;5030540;28;20182;-76
2021/09/18 17:09:56;;;;;;;6.10;5.60;;;18.90;99.90;;;;;;5030451;28;20510;-76
2021/09/18 17:12:22;;;;;;;6.33;5.70;;;18.70;99.90;;;;;;5030228;28;20205;-76
2021/09/18 17:14:47;;;;;;;9.87;8.83;;;18.50;99.90;;;;;;5027850;28;20244;-75
2021/09/18 17:17:13;;;;;;;10.73;8.13;;;18.30;99.90;;;;;;5037379;28;20212;-76
2021/09/18 17:19:38;;;;;;;6.03;5.10;;;18.20;99.90;;;;;;5049282;28;20260;-76
2021/09/18 17:22:04;;;;;;;8.07;5.70;;;18.00;99.90;;;;;;5032625;28;20653;-74